Time;durP1;ratioP1;P1;durP2;ratioP2;P2;SDS_P1;SDS_P2;PMS_P1;PMS_P2;Temp;Humidity;BMP_temperature;BMP_pressure;BME280_temperature;BME280_humidity;BME280_pressure;Samples;Min_cycle;Max_cycle;Signal;HPM_P1;HPM_P2
2023/09/30 00:02:20;;;;;;;58.60;38.80;;;;;;;17.79;57.04;99897.14;109103;1253;59889;-54
2023/09/30 00:04:46;;;;;;;70.60;41.10;;;;;;;17.78;57.03;99892.81;109659;1251;73785;-54
2023/09/30 00:07:13;;;;;;;65.90;40.10;;;;;;;17.82;56.92;99892.87;109701;1251;67170;-55
2023/09/30 00:09:40;;;;;;;62.90;38.90;;;;;;;17.82;57.26;99893.58;109685;1251;72502;-54
2023/09/30 00:12:07;;;;;;;68.70;39.70;;;;;;;17.78;57.47;99892.15;109697;1251;60714;-55
2023/09/30 00:14:33;;;;;;;65.00;41.20;;;;;;;17.74;57.47;99892.09;109678;1251;59676;-54
2023/09/30 00:17:00;;;;;;;66.80;39.60;;;;;;;17.75;57.08;99889.69;109700;1252;75446;-54
2023/09/30 00:19:27;;;;;;;67.80;39.40;;;;;;;17.66;57.49;99889.65;109591;1251;68774;-55
2023/09/30 00:21:53;;;;;;;67.90;39.30;;;;;;;17.65;57.63;99884.71;109627;1251;71109;-54
2023/09/30 00:24:20;;;;;;;68.30;37.80;;;;;;;17.68;57.66;99885.83;109507;1256;60492;-54
2023/09/30 00:26:47;;;;;;;63.50;35.50;;;;;;;17.67;57.69;99886.86;109477;1252;59835;-54
2023/09/30 00:29:14;;;;;;;64.60;35.00;;;;;;;17.67;57.73;99883.73;109539;1253;74596;-54
2023/09/30 00:31:40;;;;;;;65.20;37.90;;;;;;;17.60;58.04;99885.45;109232;1253;68527;-54
2023/09/30 00:34:08;;;;;;;58.40;35.60;;;;;;;17.57;58.05;99886.95;109285;1253;72654;-54
2023/09/30 00:36:35;;;;;;;67.00;36.70;;;;;;;17.54;57.96;99884.44;109497;1253;60883;-54
2023/09/30 00:39:02;;;;;;;59.30;36.60;;;;;;;17.51;57.86;99884.42;109270;1253;59845;-54
2023/09/30 00:41:29;;;;;;;75.10;38.10;;;;;;;17.46;58.17;99883.67;109602;1253;74745;-55
2023/09/30 00:43:55;;;;;;;66.90;38.80;;;;;;;17.45;58.32;99885.10;109533;1253;68584;-54
2023/09/30 00:46:29;;;;;;;66.80;36.60;;;;;;;17.45;58.13;99881.62;109534;1252;71254;-54
2023/09/30 00:48:56;;;;;;;59.10;32.80;;;;;;;17.42;58.24;99877.31;109175;1253;60369;-55
2023/09/30 00:51:23;;;;;;;61.50;34.10;;;;;;;17.40;58.83;99874.69;109358;1253;59703;-54
2023/09/30 00:53:54;;;;;;;57.00;34.50;;;;;;;17.42;59.10;99872.88;109566;1252;75471;-54
2023/09/30 00:56:22;;;;;;;61.00;34.50;;;;;;;17.31;59.65;99869.00;109549;1253;68635;-54
2023/09/30 00:58:51;;;;;;;64.60;36.60;;;;;;;17.34;59.84;99871.67;109575;1252;72442;-55
2023/09/30 01:01:20;;;;;;;55.00;33.90;;;;;;;17.41;59.69;99868.01;109530;1253;61804;-54
2023/09/30 01:03:48;;;;;;;55.10;33.50;;;;;;;17.43;59.46;99864.95;109560;1253;59792;-54
2023/09/30 01:06:15;;;;;;;62.00;35.40;;;;;;;17.45;59.06;99865.61;109646;1252;75433;-54
2023/09/30 01:08:42;;;;;;;57.30;33.10;;;;;;;17.48;58.70;99864.76;109586;1253;68517;-54
2023/09/30 01:11:09;;;;;;;50.30;32.70;;;;;;;17.46;58.91;99862.25;109615;1250;71354;-54
2023/09/30 01:13:37;;;;;;;58.90;34.40;;;;;;;17.41;59.37;99859.10;109707;1251;60546;-54
2023/09/30 01:16:11;;;;;;;54.00;34.20;;;;;;;17.31;59.89;99858.30;109441;1251;60261;-54
2023/09/30 01:18:39;;;;;;;57.80;32.60;;;;;;;17.28;60.07;99856.60;109647;1255;75490;-54
2023/09/30 01:21:06;;;;;;;56.20;32.60;;;;;;;17.19;60.69;99854.83;109307;1251;68657;-54
2023/09/30 01:23:33;;;;;;;49.50;30.60;;;;;;;17.13;61.15;99852.62;109618;1251;72613;-54
2023/09/30 01:26:03;;;;;;;45.80;30.60;;;;;;;17.12;61.30;99852.89;109722;1251;60663;-54
2023/09/30 01:28:31;;;;;;;46.10;28.30;;;;;;;17.11;61.45;99852.97;109701;1251;60073;-54
2023/09/30 01:30:58;;;;;;;51.00;28.70;;;;;;;17.17;61.58;99851.98;109756;1251;75414;-54
2023/09/30 01:33:25;;;;;;;39.80;25.40;;;;;;;17.22;61.46;99846.59;109734;1251;66450;-55
2023/09/30 01:35:52;;;;;;;53.10;28.10;;;;;;;17.21;61.35;99849.21;109695;1251;71328;-54
2023/09/30 01:38:18;;;;;;;50.80;31.30;;;;;;;17.18;61.97;99846.44;109727;1251;60421;-54
2023/09/30 01:40:46;;;;;;;49.10;33.10;;;;;;;17.18;62.46;99848.33;109677;1255;59646;-54
2023/09/30 01:43:16;;;;;;;57.50;30.90;;;;;;;17.12;62.84;99846.28;109764;1251;73963;-54
2023/09/30 01:45:42;;;;;;;45.90;31.40;;;;;;;17.07;62.64;99844.87;109762;1251;67327;-56
2023/09/30 01:48:11;;;;;;;56.50;35.90;;;;;;;17.04;62.35;99846.98;109419;1251;71641;-54
2023/09/30 01:50:38;;;;;;;64.00;34.90;;;;;;;17.01;62.46;99845.12;109708;1250;60355;-54
2023/09/30 01:53:09;;;;;;;54.90;31.90;;;;;;;17.01;62.33;99845.00;109467;1251;59847;-54
2023/09/30 01:55:36;;;;;;;57.50;32.30;;;;;;;16.94;62.25;99843.79;109712;1251;73689;-54
2023/09/30 01:58:03;;;;;;;52.20;33.10;;;;;;;16.93;61.78;99844.12;109656;1251;67473;-54
2023/09/30 02:00:30;;;;;;;44.90;28.90;;;;;;;16.84;61.87;99841.13;109475;1251;71455;-54
2023/09/30 02:02:57;;;;;;;48.20;31.80;;;;;;;16.73;62.02;99833.73;109675;1251;60454;-54
2023/09/30 02:05:24;;;;;;;59.30;34.80;;;;;;;16.69;62.56;99832.09;109514;1251;59933;-53
2023/09/30 02:07:51;;;;;;;53.10;35.40;;;;;;;16.63;63.55;99837.16;109568;1255;75542;-54
2023/09/30 02:10:21;;;;;;;63.80;33.40;;;;;;;16.67;63.99;99836.02;109558;1252;68493;-53
2023/09/30 02:12:47;;;;;;;67.50;41.30;;;;;;;16.75;62.80;99835.78;109535;1254;71869;-54
2023/09/30 02:15:14;;;;;;;58.90;38.00;;;;;;;16.76;62.48;99830.85;109244;1256;60394;-55
2023/09/30 02:17:45;;;;;;;64.30;36.50;;;;;;;16.77;61.85;99827.02;109143;1256;60304;-54
2023/09/30 02:20:15;;;;;;;65.30;39.70;;;;;;;16.75;61.40;99826.80;109267;1259;75258;-54
2023/09/30 02:22:43;;;;;;;73.10;38.50;;;;;;;16.61;62.53;99830.01;109194;1257;67633;-54
2023/09/30 02:25:12;;;;;;;63.30;38.50;;;;;;;16.55;62.84;99827.75;109206;1256;72424;-54
2023/09/30 02:27:41;;;;;;;64.80;38.80;;;;;;;16.42;62.89;99830.04;109215;1257;62070;-54
2023/09/30 02:30:10;;;;;;;74.20;43.10;;;;;;;16.38;63.15;99830.79;109230;1255;59757;-54
2023/09/30 02:32:40;;;;;;;76.50;41.50;;;;;;;16.34;63.14;99832.40;109254;1257;75431;-54
2023/09/30 02:35:08;;;;;;;72.00;42.10;;;;;;;16.23;63.19;99827.08;109221;1256;67460;-54
2023/09/30 02:37:38;;;;;;;68.50;42.70;;;;;;;16.15;63.95;99828.33;109190;1257;71375;-54
2023/09/30 02:40:09;;;;;;;70.50;40.10;;;;;;;16.16;63.56;99823.61;109238;1257;61866;-54
2023/09/30 02:42:38;;;;;;;71.00;42.00;;;;;;;16.12;63.90;99823.21;109233;1255;60560;-54
2023/09/30 02:45:06;;;;;;;77.50;44.00;;;;;;;16.10;64.12;99817.86;109273;1257;74153;-54
2023/09/30 02:47:33;;;;;;;79.80;41.70;;;;;;;16.07;63.75;99814.33;109500;1252;67622;-54
2023/09/30 02:50:00;;;;;;;67.80;42.20;;;;;;;16.04;64.14;99805.35;109400;1252;72505;-54
2023/09/30 02:52:28;;;;;;;79.20;42.60;;;;;;;16.10;63.91;99805.90;109522;1252;61726;-54
2023/09/30 02:54:57;;;;;;;71.00;41.30;;;;;;;16.12;63.68;99806.39;109537;1253;59632;-54
2023/09/30 02:57:24;;;;;;;60.40;40.00;;;;;;;16.05;63.93;99800.53;109542;1253;75333;-54
2023/09/30 02:59:54;;;;;;;71.10;40.90;;;;;;;16.00;64.18;99800.02;109541;1253;66291;-54
2023/09/30 03:02:23;;;;;;;63.30;38.90;;;;;;;15.95;64.24;99802.08;109471;1253;71193;-54
2023/09/30 03:04:51;;;;;;;60.80;37.80;;;;;;;15.97;64.31;99803.27;109499;1254;61211;-54
2023/09/30 03:07:20;;;;;;;61.60;38.60;;;;;;;15.98;64.13;99803.95;109585;1252;59884;-54
2023/09/30 03:09:47;;;;;;;77.10;40.20;;;;;;;15.97;63.94;99806.39;109524;1252;74345;-54
2023/09/30 03:12:14;;;;;;;60.10;35.20;;;;;;;15.91;64.08;99801.52;109529;1252;68806;-54
2023/09/30 03:14:42;;;;;;;65.20;37.60;;;;;;;15.88;64.01;99799.80;109509;1252;72437;-54
2023/09/30 03:17:11;;;;;;;74.40;37.00;;;;;;;15.86;63.89;99797.02;109480;1252;60111;-53
2023/09/30 03:19:38;;;;;;;48.00;30.50;;;;;;;15.84;64.04;99793.17;109561;1251;59978;-54
2023/09/30 03:22:10;;;;;;;46.60;26.70;;;;;;;15.85;63.95;99791.92;109655;1251;74491;-54
2023/09/30 03:24:39;;;;;;;53.20;29.40;;;;;;;15.86;63.81;99790.92;109746;1251;68126;-54
2023/09/30 03:27:05;;;;;;;50.80;32.90;;;;;;;15.86;63.67;99790.29;109727;1251;71486;-53
2023/09/30 03:29:32;;;;;;;52.20;31.10;;;;;;;15.89;63.35;99792.42;109696;1251;60520;-54
2023/09/30 03:31:58;;;;;;;55.50;31.30;;;;;;;15.86;63.47;99791.10;109742;1251;59760;-53
2023/09/30 03:34:25;;;;;;;55.40;33.40;;;;;;;15.75;63.74;99790.77;109749;1250;74013;-54
2023/09/30 03:36:54;;;;;;;49.70;29.40;;;;;;;15.70;63.63;99787.73;109704;1251;68436;-53
2023/09/30 03:39:26;;;;;;;40.80;26.70;;;;;;;15.69;63.73;99785.91;109369;1251;71228;-54
2023/09/30 03:41:57;;;;;;;46.40;25.70;;;;;;;15.75;63.50;99780.70;109698;1251;59996;-54
2023/09/30 03:44:24;;;;;;;39.70;24.00;;;;;;;15.63;63.38;99778.05;109674;1254;59964;-54
2023/09/30 03:46:51;;;;;;;47.60;26.40;;;;;;;15.45;64.37;99774.92;109538;1250;73959;-53
2023/09/30 03:49:19;;;;;;;40.90;23.90;;;;;;;15.44;65.26;99779.35;109647;1250;68431;-54
2023/09/30 03:51:46;;;;;;;40.30;21.90;;;;;;;15.50;64.78;99777.14;109736;1250;72507;-54
2023/09/30 03:54:13;;;;;;;47.60;20.30;;;;;;;15.54;64.55;99775.67;109674;1251;59827;-53
2023/09/30 03:56:41;;;;;;;49.40;25.60;;;;;;;15.60;64.57;99780.44;109670;1251;60394;-53
2023/09/30 03:59:08;;;;;;;47.60;24.50;;;;;;;15.59;65.12;99781.15;109460;1251;75242;-53
2023/09/30 04:01:39;;;;;;;33.10;19.30;;;;;;;15.68;64.74;99779.30;109707;1250;68510;-53
2023/09/30 04:04:08;;;;;;;33.70;21.10;;;;;;;15.78;63.78;99774.45;109586;1251;72446;-53
2023/09/30 04:06:38;;;;;;;63.30;24.50;;;;;;;15.80;63.59;99780.59;109449;1254;61382;-54
2023/09/30 04:09:11;;;;;;;51.40;24.50;;;;;;;15.81;64.14;99777.17;109516;1252;60213;-53
2023/09/30 04:11:38;;;;;;;37.20;24.30;;;;;;;15.91;63.18;99776.39;109438;1251;75461;-53
2023/09/30 04:14:06;;;;;;;50.70;26.40;;;;;;;15.94;62.95;99778.64;109537;1253;67804;-54
2023/09/30 04:16:33;;;;;;;51.70;24.90;;;;;;;16.03;63.47;99782.23;109593;1252;71840;-53
2023/09/30 04:19:00;;;;;;;47.70;25.20;;;;;;;16.14;63.64;99783.12;109470;1253;59786;-54
2023/09/30 04:21:28;;;;;;;48.20;25.70;;;;;;;16.22;63.42;99781.47;109624;1251;60043;-54
2023/09/30 04:23:54;;;;;;;77.40;23.60;;;;;;;16.40;62.43;99783.41;109334;1253;75205;-53
2023/09/30 04:26:22;;;;;;;43.60;24.30;;;;;;;16.30;62.16;99781.17;109400;1253;68299;-54
2023/09/30 04:28:49;;;;;;;54.80;25.90;;;;;;;16.21;63.24;99782.36;109551;1252;70649;-53
2023/09/30 04:31:15;;;;;;;62.80;25.10;;;;;;;16.24;63.33;99781.89;109391;1252;118269;-53
2023/09/30 04:33:42;;;;;;;66.20;26.60;;;;;;;16.26;63.73;99787.61;109488;1254;59766;-53
2023/09/30 04:36:10;;;;;;;57.40;26.90;;;;;;;16.39;63.35;99785.10;109543;1252;75381;-54
2023/09/30 04:38:39;;;;;;;60.00;28.70;;;;;;;16.60;63.12;99787.16;109527;1253;67140;-53
2023/09/30 04:41:07;;;;;;;233.50;44.60;;;;;;;16.87;62.52;99788.61;109544;1252;71318;-54
2023/09/30 04:43:34;;;;;;;101.40;30.90;;;;;;;17.14;61.56;99787.52;109383;1251;62536;-53
2023/09/30 04:46:01;;;;;;;59.60;26.60;;;;;;;17.40;60.92;99786.48;109538;1251;59790;-53
2023/09/30 04:48:28;;;;;;;47.00;26.80;;;;;;;17.83;59.17;99785.83;109438;1252;74241;-54
2023/09/30 04:50:55;;;;;;;51.30;25.30;;;;;;;17.85;58.25;99785.36;109532;1254;68503;-54
2023/09/30 04:53:23;;;;;;;43.20;26.70;;;;;;;17.99;57.90;99784.33;109532;1252;71343;-54
2023/09/30 04:55:50;;;;;;;42.30;24.90;;;;;;;18.14;57.23;99782.17;109491;1253;61936;-54
2023/09/30 04:58:16;;;;;;;38.50;24.30;;;;;;;18.29;56.73;99780.55;109567;1251;59716;-54
2023/09/30 05:00:43;;;;;;;41.40;26.20;;;;;;;18.62;55.53;99780.25;109535;1253;75205;-54
2023/09/30 05:03:10;;;;;;;51.20;28.60;;;;;;;19.07;53.95;99781.86;109495;1252;67660;-54
2023/09/30 05:05:37;;;;;;;42.50;28.30;;;;;;;19.50;52.99;99783.56;109498;1252;72685;-54
2023/09/30 05:08:04;;;;;;;45.00;31.30;;;;;;;19.50;52.34;99784.23;109482;1252;60600;-54
2023/09/30 05:10:30;;;;;;;41.80;29.70;;;;;;;19.48;52.09;99786.10;109133;1253;59697;-54
2023/09/30 05:12:57;;;;;;;41.60;25.70;;;;;;;19.61;51.86;99786.25;109493;1252;74160;-54
2023/09/30 05:15:25;;;;;;;46.60;25.60;;;;;;;19.77;51.21;99785.98;109543;1252;67814;-54
2023/09/30 05:17:52;;;;;;;50.70;26.00;;;;;;;19.67;51.24;99784.25;109525;1252;72796;-54
2023/09/30 05:20:19;;;;;;;37.40;26.10;;;;;;;19.93;50.33;99788.36;109483;1254;60474;-55
2023/09/30 05:22:46;;;;;;;41.30;25.90;;;;;;;20.51;48.03;99792.90;109611;1251;59755;-54
2023/09/30 05:25:16;;;;;;;41.20;23.40;;;;;;;20.82;46.70;99790.00;109580;1252;74276;-55
2023/09/30 05:27:43;;;;;;;45.40;24.70;;;;;;;21.06;45.76;99795.96;109524;1252;68953;-54
2023/09/30 05:30:15;;;;;;;39.20;25.90;;;;;;;21.13;45.39;99796.04;109556;1252;70778;-55
2023/09/30 05:32:41;;;;;;;46.00;24.40;;;;;;;21.42;44.59;99799.28;109467;1252;59850;-55
2023/09/30 05:35:16;;;;;;;45.70;22.70;;;;;;;21.69;44.08;99800.84;109515;1252;60057;-55
2023/09/30 05:37:45;;;;;;;34.80;21.90;;;;;;;21.69;43.50;99800.45;109535;1252;74613;-55
2023/09/30 05:40:30;;;;;;;;;;;;;;;21.63;43.19;99801.80;109569;1252;67258;-55
2023/09/30 05:43:00;;;;;;;46.60;24.80;;;;;;;21.54;43.41;99803.42;109513;1252;72495;-55
2023/09/30 05:45:27;;;;;;;69.60;32.10;;;;;;;21.70;43.55;99803.05;109407;1252;59763;-57
2023/09/30 05:47:56;;;;;;;54.40;29.00;;;;;;;21.71;43.18;99801.86;109542;1252;59827;-55
2023/09/30 05:50:26;;;;;;;46.50;26.00;;;;;;;22.00;42.79;99801.32;109444;1252;74143;-55
2023/09/30 05:52:53;;;;;;;30.90;17.30;;;;;;;22.06;42.40;99799.86;109550;1252;68462;-55
2023/09/30 05:55:20;;;;;;;33.80;17.00;;;;;;;22.08;42.38;99800.66;109474;1252;72753;-55
2023/09/30 05:57:50;;;;;;;30.10;15.90;;;;;;;22.19;42.09;99803.59;109324;1252;59697;-55
2023/09/30 06:00:21;;;;;;;30.30;16.90;;;;;;;22.11;42.37;99800.19;109533;1253;60401;-54
2023/09/30 06:02:48;;;;;;;24.80;15.80;;;;;;;22.51;41.78;99800.86;109555;1252;75378;-54
2023/09/30 06:05:22;;;;;;;32.90;16.60;;;;;;;22.81;40.90;99803.57;109503;1252;68542;-55
2023/09/30 06:07:49;;;;;;;30.40;15.00;;;;;;;23.03;40.57;99803.11;109531;1252;71323;-54
2023/09/30 06:10:18;;;;;;;23.80;14.70;;;;;;;22.90;40.51;99801.92;109500;1251;59830;-54
2023/09/30 06:12:49;;;;;;;20.70;13.70;;;;;;;23.07;40.50;99798.20;109546;1252;59810;-55
2023/09/30 06:15:21;;;;;;;25.50;15.00;;;;;;;23.04;40.36;99800.59;109518;1252;75345;-54
2023/09/30 06:17:49;;;;;;;25.20;13.40;;;;;;;23.17;40.01;99799.70;109599;1251;67256;-54
2023/09/30 06:20:17;;;;;;;25.70;15.30;;;;;;;23.22;39.88;99802.14;109607;1251;71604;-55
2023/09/30 06:22:45;;;;;;;;;;;;;;;23.47;39.78;99805.21;109737;1250;59764;-55
2023/09/30 06:25:13;;;;;;;27.60;15.30;;;;;;;23.68;39.23;99803.51;109772;1250;59808;-54
2023/09/30 06:27:39;;;;;;;30.80;17.20;;;;;;;23.59;39.29;99802.22;109755;1250;75411;-54
2023/09/30 06:30:08;;;;;;;25.50;15.60;;;;;;;23.69;39.24;99803.77;109753;1250;68712;-55
2023/09/30 06:32:35;;;;;;;33.50;17.00;;;;;;;24.03;38.89;99809.39;109498;1251;72697;-54
2023/09/30 06:35:03;;;;;;;31.60;16.90;;;;;;;24.57;38.17;99809.91;109733;1250;59758;-55
2023/09/30 06:37:30;;;;;;;28.00;15.60;;;;;;;24.92;37.49;99811.54;109451;1251;59795;-55
2023/09/30 06:39:57;;;;;;;20.80;13.60;;;;;;;24.73;37.57;99814.45;109795;1250;75278;-55
2023/09/30 06:42:26;;;;;;;27.80;16.70;;;;;;;25.17;37.05;99816.88;109729;1250;68045;-55
2023/09/30 06:44:53;;;;;;;23.90;13.60;;;;;;;25.51;36.63;99817.53;109757;1250;72518;-55
2023/09/30 06:47:20;;;;;;;24.70;14.10;;;;;;;25.75;36.32;99823.01;109712;1250;60220;-55
2023/09/30 06:49:47;;;;;;;32.40;14.40;;;;;;;26.13;35.82;99823.13;109678;1250;60138;-55
2023/09/30 06:52:14;;;;;;;22.00;15.00;;;;;;;26.34;35.57;99823.30;109488;1251;75473;-55
2023/09/30 06:54:41;;;;;;;28.50;15.30;;;;;;;26.48;35.12;99824.86;109749;1250;67405;-55
2023/09/30 06:57:09;;;;;;;37.80;17.80;;;;;;;26.75;34.96;99823.18;109665;1250;71179;-55
2023/09/30 06:59:37;;;;;;;33.30;16.80;;;;;;;26.71;34.96;99823.86;109389;1251;60032;-55
2023/09/30 07:02:04;;;;;;;34.70;16.30;;;;;;;26.67;34.93;99823.85;109710;1250;59993;-56
2023/09/30 07:04:30;;;;;;;27.00;15.10;;;;;;;26.75;34.55;99822.09;109549;1251;75506;-55
2023/09/30 07:06:57;;;;;;;28.20;14.10;;;;;;;27.12;34.23;99815.48;109566;1252;68992;-56
2023/09/30 07:09:24;;;;;;;24.60;12.60;;;;;;;27.06;34.22;99817.61;109514;1251;72547;-56
2023/09/30 07:11:51;;;;;;;23.70;13.60;;;;;;;26.91;34.57;99819.30;109530;1252;60250;-55
2023/09/30 07:14:18;;;;;;;24.70;12.10;;;;;;;27.16;34.51;99817.78;109574;1252;60300;-55
2023/09/30 07:16:45;;;;;;;28.50;14.30;;;;;;;27.21;34.20;99817.89;109543;1252;75181;-55
2023/09/30 07:19:12;;;;;;;24.40;12.70;;;;;;;27.59;34.11;99817.39;109390;1253;68687;-56
2023/09/30 07:21:39;;;;;;;23.40;13.20;;;;;;;27.62;33.87;99815.01;109571;1251;72655;-56
2023/09/30 07:24:06;;;;;;;20.60;12.30;;;;;;;27.97;33.64;99816.36;109514;1251;60050;-56
2023/09/30 07:26:33;;;;;;;24.00;12.30;;;;;;;28.31;32.97;99819.03;109509;1251;60536;-55
2023/09/30 07:28:59;;;;;;;28.00;10.80;;;;;;;27.93;33.38;99812.52;109305;1252;75324;-55
2023/09/30 07:31:26;;;;;;;18.70;11.70;;;;;;;28.10;33.22;99810.92;109633;1252;68414;-56
2023/09/30 07:33:53;;;;;;;15.40;11.30;;;;;;;28.59;32.89;99812.45;109525;1251;72470;-55
2023/09/30 07:36:19;;;;;;;19.20;12.40;;;;;;;28.80;32.35;99813.27;109523;1252;59737;-54
2023/09/30 07:38:47;;;;;;;30.60;12.00;;;;;;;29.18;31.93;99818.11;109545;1252;60130;-56
2023/09/30 07:41:13;;;;;;;17.20;11.50;;;;;;;29.63;31.40;99819.79;109528;1252;74643;-56
2023/09/30 07:43:40;;;;;;;14.80;11.10;;;;;;;29.61;31.64;99821.26;109489;1252;68686;-57
2023/09/30 07:46:07;;;;;;;23.70;12.30;;;;;;;29.62;31.83;99822.21;109508;1251;72961;-55
2023/09/30 07:48:35;;;;;;;25.10;12.90;;;;;;;29.96;31.25;99823.65;109516;1252;59746;-56
2023/09/30 07:51:01;;;;;;;24.80;12.50;;;;;;;30.12;30.64;99822.64;109522;1252;60587;-56
2023/09/30 07:53:28;;;;;;;19.60;12.60;;;;;;;29.90;30.47;99822.17;109566;1252;75433;-55
2023/09/30 07:55:56;;;;;;;34.20;12.70;;;;;;;30.22;30.30;99825.74;109511;1252;68577;-55
2023/09/30 07:58:23;;;;;;;;;;;;;;;30.76;29.86;99824.28;109541;1252;72527;-55
2023/09/30 08:00:50;;;;;;;24.00;12.40;;;;;;;31.43;29.24;99823.64;109625;1252;60024;-55
2023/09/30 08:03:17;;;;;;;23.10;10.50;;;;;;;31.69;28.75;99822.27;109580;1252;60175;-55
2023/09/30 08:05:46;;;;;;;21.50;11.40;;;;;;;31.34;28.64;99818.36;109549;1252;75367;-55
2023/09/30 08:08:14;;;;;;;23.60;11.90;;;;;;;31.58;28.51;99821.27;109523;1252;68653;-55
2023/09/30 08:10:42;;;;;;;26.90;11.10;;;;;;;31.90;28.05;99819.58;109548;1250;71941;-55
2023/09/30 08:13:09;;;;;;;20.80;10.30;;;;;;;31.74;27.82;99820.70;109737;1250;59735;-54
2023/09/30 08:15:36;;;;;;;15.60;9.20;;;;;;;31.54;28.39;99816.82;109735;1250;60071;-54
2023/09/30 08:18:05;;;;;;;17.70;9.30;;;;;;;31.72;28.07;99818.24;109440;1251;66577;-55
2023/09/30 08:20:32;;;;;;;16.30;8.80;;;;;;;31.80;27.57;99816.36;109595;1251;59978;-55
2023/09/30 08:22:59;;;;;;;19.10;8.20;;;;;;;31.97;27.48;99816.83;109699;1250;63682;-55
2023/09/30 08:25:26;;;;;;;12.30;7.60;;;;;;;32.17;26.66;99817.60;109723;1250;59888;-56
2023/09/30 08:27:54;;;;;;;14.10;8.00;;;;;;;31.95;26.62;99813.41;109737;1250;59809;-54
2023/09/30 08:30:21;;;;;;;14.30;8.10;;;;;;;31.53;26.75;99815.88;109767;1250;75203;-55
2023/09/30 08:32:47;;;;;;;21.80;9.20;;;;;;;31.72;26.47;99814.19;109720;1250;67994;-55
2023/09/30 08:35:15;;;;;;;17.60;8.80;;;;;;;32.00;26.76;99813.88;109465;1250;72678;-53
2023/09/30 08:37:41;;;;;;;20.10;8.80;;;;;;;32.76;25.98;99818.13;109706;1250;59708;-55
2023/09/30 08:40:09;;;;;;;21.30;8.20;;;;;;;32.91;25.68;99815.66;109707;1250;59678;-54
2023/09/30 08:42:38;;;;;;;14.70;7.70;;;;;;;33.38;25.42;99815.27;109750;1250;65362;-55
2023/09/30 08:45:08;;;;;;;17.10;9.30;;;;;;;33.34;24.91;99809.56;109733;1250;59817;-55
2023/09/30 08:47:35;;;;;;;21.00;9.40;;;;;;;33.13;25.06;99812.31;109582;1250;62739;-55
2023/09/30 08:50:05;;;;;;;24.80;11.60;;;;;;;33.25;25.05;99806.33;109620;1251;59815;-55
2023/09/30 08:52:33;;;;;;;26.60;12.70;;;;;;;33.51;24.37;99805.70;109390;1251;59719;-55
2023/09/30 08:55:04;;;;;;;17.10;9.10;;;;;;;32.96;24.55;99804.06;109636;1250;66683;-55
2023/09/30 08:57:31;;;;;;;17.10;8.80;;;;;;;33.03;24.56;99804.08;109692;1250;59786;-54
2023/09/30 08:59:58;;;;;;;18.90;8.40;;;;;;;33.10;24.61;99799.85;109729;1250;62779;-53
2023/09/30 09:02:24;;;;;;;14.70;8.70;;;;;;;33.27;24.30;99801.77;109734;1250;59750;-55
2023/09/30 09:04:52;;;;;;;15.30;8.20;;;;;;;32.92;24.50;99799.31;109236;1253;59840;-55
2023/09/30 09:07:19;;;;;;;17.80;8.40;;;;;;;32.85;24.92;99795.34;109521;1252;66497;-55
2023/09/30 09:10:05;;;;;;;14.80;7.90;;;;;;;33.18;24.42;99792.11;109451;1252;59783;-54
2023/09/30 09:12:33;;;;;;;15.10;7.00;;;;;;;32.58;24.24;99793.06;109512;1252;63916;-53
2023/09/30 09:15:00;;;;;;;11.30;6.80;;;;;;;32.40;24.13;99791.45;109541;1252;59829;-53
2023/09/30 09:17:41;;;;;;;11.30;6.90;;;;;;;32.77;23.76;99790.51;109524;1252;59803;-55
2023/09/30 09:20:11;;;;;;;13.50;6.90;;;;;;;32.97;23.67;99789.45;109396;1253;67327;-55
2023/09/30 09:22:39;;;;;;;11.30;6.50;;;;;;;33.05;23.45;99786.59;109406;1256;59888;-55
2023/09/30 09:25:07;;;;;;;21.60;7.70;;;;;;;32.92;23.49;99788.50;109522;1251;63856;-56
2023/09/30 09:27:35;;;;;;;10.20;7.20;;;;;;;32.53;23.50;99785.83;109454;1252;60002;-55
2023/09/30 09:30:34;;;;;;;13.20;7.30;;;;;;;32.72;23.51;99787.48;109205;1251;59862;-55
2023/09/30 09:33:04;;;;;;;13.60;6.80;;;;;;;32.92;23.38;99784.14;108811;1259;67299;-54
2023/09/30 09:35:33;;;;;;;14.50;6.40;;;;;;;33.49;23.35;99785.76;108866;1260;60280;-55
2023/09/30 09:38:01;;;;;;;22.00;7.60;;;;;;;33.46;23.03;99782.58;108904;1259;63811;-56
2023/09/30 09:40:29;;;;;;;21.40;7.60;;;;;;;33.30;23.02;99778.34;108736;1259;60407;-54
2023/09/30 09:42:56;;;;;;;11.20;5.80;;;;;;;33.15;23.31;99776.65;108928;1259;59889;-54
2023/09/30 09:45:25;;;;;;;14.20;7.60;;;;;;;32.95;23.07;99775.88;108996;1258;65497;-53
2023/09/30 09:47:52;;;;;;;16.00;7.00;;;;;;;32.96;23.09;99773.17;108995;1259;60072;-54
2023/09/30 09:50:22;;;;;;;10.90;7.30;;;;;;;33.21;23.06;99772.55;109008;1259;62560;-54
2023/09/30 09:52:50;;;;;;;18.20;6.20;;;;;;;33.63;22.83;99770.42;108854;1262;59855;-54
2023/09/30 09:55:18;;;;;;;18.30;7.10;;;;;;;33.36;22.89;99766.09;109029;1259;59790;-53
2023/09/30 09:57:45;;;;;;;20.70;7.10;;;;;;;33.33;22.88;99767.60;109029;1259;66587;-54
2023/09/30 10:00:14;;;;;;;19.70;7.40;;;;;;;33.43;22.67;99762.63;109088;1258;60162;-53
2023/09/30 10:02:41;;;;;;;9.90;6.20;;;;;;;33.20;23.17;99762.30;108873;1258;64225;-54
2023/09/30 10:05:08;;;;;;;14.20;6.50;;;;;;;33.37;22.72;99755.82;108953;1259;59745;-54
2023/09/30 10:07:41;;;;;;;11.70;5.20;;;;;;;33.08;22.70;99752.65;108806;1259;59906;-53
2023/09/30 10:10:13;;;;;;;11.70;5.90;;;;;;;32.61;22.66;99745.25;109588;1252;66115;-55
2023/09/30 10:12:41;;;;;;;7.40;5.70;;;;;;;32.79;22.68;99740.95;109349;1250;60138;-54
2023/09/30 10:15:26;;;;;;;11.80;5.80;;;;;;;33.05;22.26;99739.08;109741;1250;64144;-54
2023/09/30 10:18:03;;;;;;;10.00;4.80;;;;;;;32.93;22.04;99736.39;109698;1250;59916;-54
2023/09/30 10:20:31;;;;;;;12.00;5.00;;;;;;;32.58;21.82;99731.68;109562;1250;60921;-54
2023/09/30 10:23:17;;;;;;;7.50;5.40;;;;;;;32.56;22.18;99730.41;109722;1250;65740;-55
2023/09/30 10:25:47;;;;;;;16.00;6.20;;;;;;;32.62;22.10;99728.51;109689;1250;60110;-55
2023/09/30 10:28:32;;;;;;;9.10;5.20;;;;;;;31.97;22.72;99722.91;109697;1250;63776;-54
2023/09/30 10:31:21;;;;;;;11.60;5.70;;;;;;;31.92;22.36;99719.18;109721;1250;59780;-55
2023/09/30 10:34:00;;;;;;;15.50;6.70;;;;;;;32.62;21.82;99722.45;109711;1250;59862;-54
2023/09/30 10:36:34;;;;;;;11.00;5.50;;;;;;;33.32;21.74;99721.84;109680;1250;65387;-54
2023/09/30 10:39:01;;;;;;;8.60;5.20;;;;;;;33.52;21.46;99722.86;109679;1250;59902;-54
2023/09/30 10:41:45;;;;;;;11.40;6.00;;;;;;;33.67;21.07;99722.20;109675;1251;72616;-55
2023/09/30 10:44:27;;;;;;;7.50;4.90;;;;;;;32.89;21.31;99715.20;109674;1250;59972;-54
2023/09/30 10:46:57;;;;;;;23.70;5.90;;;;;;;32.77;21.66;99706.16;109737;1250;59802;-54
2023/09/30 10:49:24;;;;;;;19.10;6.90;;;;;;;32.16;22.24;99711.45;109729;1251;66979;-53
2023/09/30 10:51:54;;;;;;;8.30;5.30;;;;;;;32.57;21.67;99709.61;109757;1250;67586;-54
2023/09/30 10:54:25;;;;;;;9.60;5.50;;;;;;;32.89;21.55;99705.44;109690;1250;63940;-54
2023/09/30 10:56:55;;;;;;;13.40;6.50;;;;;;;32.78;21.73;99702.59;109734;1250;59731;-55
2023/09/30 10:59:22;;;;;;;17.50;7.50;;;;;;;32.39;22.17;99697.01;109669;1251;59790;-56
2023/09/30 11:01:49;;;;;;;11.10;6.50;;;;;;;32.24;22.25;99696.14;109774;1250;67259;-54
2023/09/30 11:04:17;;;;;;;20.40;8.40;;;;;;;32.54;22.34;99692.16;109606;1251;59908;-54
2023/09/30 11:06:44;;;;;;;14.60;6.50;;;;;;;32.95;22.00;99690.24;109571;1251;62425;-53
2023/09/30 11:09:21;;;;;;;12.60;6.90;;;;;;;33.13;22.02;99688.85;109551;1252;59736;-53
2023/09/30 11:11:50;;;;;;;19.20;7.20;;;;;;;33.40;21.71;99689.92;109382;1251;59842;-57
2023/09/30 11:14:27;;;;;;;19.00;6.90;;;;;;;33.03;21.72;99688.95;109595;1251;66828;-54
2023/09/30 11:16:58;;;;;;;14.10;6.30;;;;;;;33.19;21.26;99684.52;109473;1252;59847;-54
2023/09/30 11:19:25;;;;;;;9.10;6.30;;;;;;;33.09;21.00;99681.38;109570;1252;63784;-53